Time;durP1;ratioP1;P1;durP2;ratioP2;P2;SDS_P1;SDS_P2;PMS_P1;PMS_P2;Temp;Humidity;BMP_temperature;BMP_pressure;BME280_temperature;BME280_humidity;BME280_pressure;Samples;Min_cycle;Max_cycle;Signal;HPM_P1;HPM_P2
2023/10/08 00:01:13;;;;;;;15.95;4.82;;;;;;;16.75;100.00;102046.63;5088658;28;20442;-45
2023/10/08 00:03:48;;;;;;;19.20;5.22;;;;;;;16.76;100.00;102041.19;5088551;28;20051;-44
2023/10/08 00:06:19;;;;;;;17.27;4.70;;;;;;;16.75;100.00;102038.66;5088466;28;20048;-49
2023/10/08 00:08:49;;;;;;;17.15;5.82;;;;;;;16.72;100.00;102059.16;5088611;28;20048;-43
2023/10/08 00:11:17;;;;;;;18.35;4.75;;;;;;;16.76;100.00;102069.56;5087805;28;20048;-47
2023/10/08 00:13:48;;;;;;;18.63;4.70;;;;;;;16.77;100.00;102065.94;5085017;28;20044;-45
2023/10/08 00:16:17;;;;;;;16.83;4.93;;;;;;;16.76;100.00;102065.09;5086261;28;20502;-45
2023/10/08 00:18:50;;;;;;;18.17;4.80;;;;;;;16.75;100.00;102058.09;5088360;28;20063;-46
2023/10/08 00:21:26;;;;;;;17.90;4.90;;;;;;;16.74;100.00;102056.38;5088281;28;20134;-45
2023/10/08 00:23:59;;;;;;;20.42;5.57;;;;;;;16.73;100.00;102062.69;5088276;28;20068;-47
2023/10/08 00:26:29;;;;;;;21.52;5.18;;;;;;;16.73;100.00;102079.44;5088104;28;20051;-46
2023/10/08 00:29:00;;;;;;;21.75;5.43;;;;;;;16.72;100.00;102080.41;5088263;28;20391;-46
2023/10/08 00:31:37;;;;;;;14.18;5.15;;;;;;;16.72;100.00;102085.72;5088133;28;20119;-45
2023/10/08 00:34:11;;;;;;;18.08;5.50;;;;;;;16.71;100.00;102083.16;5086599;28;20040;-48
2023/10/08 00:36:39;;;;;;;21.40;5.22;;;;;;;16.72;100.00;102085.72;5087744;28;20564;-47
2023/10/08 00:39:13;;;;;;;23.23;5.68;;;;;;;16.72;100.00;102106.97;5088076;28;20056;-47
2023/10/08 00:41:43;;;;;;;18.63;5.65;;;;;;;16.75;100.00;102089.13;5088203;28;20114;-47
2023/10/08 00:44:13;;;;;;;17.77;5.47;;;;;;;16.74;100.00;102088.25;5087841;28;20503;-45
2023/10/08 00:46:47;;;;;;;25.17;5.68;;;;;;;16.73;100.00;102087.41;5087819;28;20771;-45
2023/10/08 00:49:38;;;;;;;20.10;5.00;;;;;;;16.72;100.00;102093.69;5074909;28;20112;-48
2023/10/08 00:52:26;;;;;;;19.00;5.57;;;;;;;16.75;100.00;102083.81;5074097;28;20076;-47
2023/10/08 00:55:07;;;;;;;22.23;5.38;;;;;;;16.74;100.00;102074.97;5073762;28;20072;-46
2023/10/08 00:57:36;;;;;;;19.40;4.95;;;;;;;16.73;100.00;102081.28;5073988;28;20048;-48
2023/10/08 01:00:15;;;;;;;22.25;5.47;;;;;;;16.73;100.00;102076.78;5073947;28;20443;-48
2023/10/08 01:02:49;;;;;;;18.50;4.95;;;;;;;16.72;100.00;102079.56;5074040;28;20376;-47
2023/10/08 01:05:21;;;;;;;18.10;4.80;;;;;;;16.69;100.00;102072.66;5072596;28;20325;-49
2023/10/08 01:07:52;;;;;;;23.87;5.83;;;;;;;16.68;100.00;102076.28;5073991;28;20090;-46
2023/10/08 01:10:21;;;;;;;18.85;5.78;;;;;;;16.67;100.00;102074.56;5074087;28;20971;-46
2023/10/08 01:13:04;;;;;;;19.40;5.38;;;;;;;16.69;100.00;102066.50;5073835;28;20480;-47
2023/10/08 01:15:35;;;;;;;20.40;6.15;;;;;;;16.69;100.00;102064.69;5073685;28;20087;-47
2023/10/08 01:18:06;;;;;;;16.30;5.37;;;;;;;16.69;100.00;102064.69;5073573;28;20099;-45
2023/10/08 01:20:36;;;;;;;23.13;6.95;;;;;;;16.73;100.00;102060.84;5073534;28;20055;-47
2023/10/08 01:23:13;;;;;;;20.45;4.80;;;;;;;16.70;100.00;102050.47;5073887;28;20044;-50
2023/10/08 01:25:42;;;;;;;22.45;5.95;;;;;;;16.66;100.00;102051.66;5073617;28;20507;-46
2023/10/08 01:28:14;;;;;;;19.42;5.53;;;;;;;16.64;100.00;102053.53;5073471;28;20044;-46
2023/10/08 01:30:46;;;;;;;19.17;5.50;;;;;;;16.65;100.00;102047.28;5073441;28;20052;-47
2023/10/08 01:33:17;;;;;;;20.45;5.43;;;;;;;16.65;100.00;102051.75;5073620;28;20066;-46
2023/10/08 01:35:48;;;;;;;19.65;5.03;;;;;;;16.62;100.00;102058.13;5073177;28;20048;-47
2023/10/08 01:38:23;;;;;;;20.88;5.38;;;;;;;16.62;100.00;102058.13;5073425;28;20032;-46
2023/10/08 01:40:52;;;;;;;26.02;5.32;;;;;;;16.63;100.00;102056.31;5073269;28;20122;-46
2023/10/08 01:43:22;;;;;;;21.52;5.32;;;;;;;16.59;100.00;102037.09;5073337;28;20049;-46
2023/10/08 01:45:51;;;;;;;21.63;6.03;;;;;;;16.60;100.00;102054.72;5073409;28;20495;-50
2023/10/08 01:48:27;;;;;;;18.70;5.20;;;;;;;16.55;100.00;102062.16;5073185;28;20052;-47
2023/10/08 01:50:58;;;;;;;17.48;5.20;;;;;;;16.54;100.00;102049.88;5073110;28;20052;-46
2023/10/08 01:53:28;;;;;;;17.88;5.10;;;;;;;16.51;100.00;102052.72;5071839;28;20076;-45
2023/10/08 01:55:58;;;;;;;26.52;6.35;;;;;;;16.50;100.00;102056.34;5072872;28;20503;-47
2023/10/08 01:58:26;;;;;;;22.10;5.90;;;;;;;16.52;100.00;102068.56;5072905;28;20113;-45
2023/10/08 02:00:59;;;;;;;20.05;5.97;;;;;;;16.48;100.00;102083.00;5071875;28;20052;-45
2023/10/08 02:03:28;;;;;;;24.30;7.15;;;;;;;16.45;100.00;102085.03;5072696;28;20052;-48
2023/10/08 02:05:59;;;;;;;18.92;6.47;;;;;;;16.42;100.00;102078.13;5072367;28;20044;-47
2023/10/08 02:08:31;;;;;;;21.83;7.38;;;;;;;16.42;100.00;102082.59;5072688;28;20041;-48
2023/10/08 02:11:02;;;;;;;21.40;8.43;;;;;;;16.38;100.00;102082.78;5072821;28;20055;-49
2023/10/08 02:13:30;;;;;;;23.45;9.05;;;;;;;16.37;100.00;102097.06;5072863;28;20048;-46
2023/10/08 02:15:59;;;;;;;25.70;9.82;;;;;;;16.36;100.00;102099.78;5072353;28;20043;-47
2023/10/08 02:18:29;;;;;;;22.92;9.45;;;;;;;16.37;100.00;102120.94;5072405;28;20126;-50
2023/10/08 02:20:58;;;;;;;32.80;10.73;;;;;;;16.36;100.00;102124.53;5070962;28;20057;-49
2023/10/08 02:23:27;;;;;;;28.13;10.80;;;;;;;16.33;100.00;102126.56;5070964;28;20048;-50
2023/10/08 02:25:57;;;;;;;25.10;10.68;;;;;;;16.30;100.00;102138.22;5072226;28;20052;-46
2023/10/08 02:28:25;;;;;;;29.15;11.65;;;;;;;16.28;100.00;102134.84;5070867;28;20052;-45
2023/10/08 02:30:53;;;;;;;32.78;12.10;;;;;;;16.28;100.00;102134.84;5072202;28;20044;-47
2023/10/08 02:33:22;;;;;;;33.72;12.48;;;;;;;16.27;100.00;102108.41;5072333;28;20495;-46
2023/10/08 02:35:51;;;;;;;33.90;14.05;;;;;;;16.27;100.00;102137.63;5071972;28;20051;-46
2023/10/08 02:38:21;;;;;;;35.05;14.77;;;;;;;16.25;100.00;102135.03;5071949;28;20044;-49
2023/10/08 02:40:54;;;;;;;30.88;13.38;;;;;;;16.27;100.00;102132.31;5072111;28;20067;-45
2023/10/08 02:43:23;;;;;;;35.20;14.35;;;;;;;16.28;100.00;102132.19;5072111;28;20058;-46
2023/10/08 02:45:52;;;;;;;39.75;13.93;;;;;;;16.29;100.00;102133.91;5072058;28;20102;-47
2023/10/08 02:48:21;;;;;;;33.88;14.85;;;;;;;16.27;100.00;102135.78;5071925;28;20045;-46
2023/10/08 02:50:49;;;;;;;44.70;15.30;;;;;;;16.26;100.00;102094.28;5072030;28;20406;-45
2023/10/08 02:53:20;;;;;;;35.60;15.00;;;;;;;16.27;100.00;102105.75;5070548;28;20044;-46
2023/10/08 02:55:49;;;;;;;30.77;14.90;;;;;;;16.22;100.00;102117.53;5071712;28;20411;-46
2023/10/08 02:58:18;;;;;;;34.63;14.93;;;;;;;16.20;100.00;102145.13;5071656;28;20492;-47
2023/10/08 03:00:50;;;;;;;34.15;13.63;;;;;;;16.21;100.00;102154.78;5071757;28;20060;-50
2023/10/08 03:03:19;;;;;;;38.40;13.73;;;;;;;16.23;100.00;102124.53;5070323;28;20079;-47
2023/10/08 03:05:49;;;;;;;27.90;10.95;;;;;;;16.18;100.00;102123.16;5071682;28;20052;-47
2023/10/08 03:08:20;;;;;;;28.58;10.45;;;;;;;16.16;100.00;102114.47;5071373;28;20523;-45
2023/10/08 03:10:55;;;;;;;21.63;8.82;;;;;;;16.15;100.00;102097.66;5071116;28;20558;-46
2023/10/08 03:13:26;;;;;;;19.23;7.43;;;;;;;16.12;100.00;102112.97;5071665;28;20059;-46
2023/10/08 03:16:07;;;;;;;23.85;7.72;;;;;;;16.10;100.00;102128.13;5071687;28;20411;-48
2023/10/08 03:18:43;;;;;;;21.02;7.85;;;;;;;16.06;100.00;102146.09;5071403;28;20116;-49
2023/10/08 03:21:21;;;;;;;22.00;7.15;;;;;;;16.04;100.00;102121.44;5071619;28;20052;-46
2023/10/08 03:23:57;;;;;;;22.33;6.85;;;;;;;16.03;100.00;102131.22;5071511;28;20040;-47
2023/10/08 03:26:34;;;;;;;23.08;7.82;;;;;;;16.02;100.00;102128.66;5071417;28;20106;-46
2023/10/08 03:29:07;;;;;;;18.83;6.50;;;;;;;15.98;100.00;102117.41;5071404;28;20139;-48
2023/10/08 03:31:50;;;;;;;17.70;6.53;;;;;;;15.99;100.00;102139.47;5071334;28;20700;-46
2023/10/08 03:34:20;;;;;;;17.92;6.20;;;;;;;15.99;100.00;102139.47;5071278;28;20052;-48
2023/10/08 03:36:50;;;;;;;19.25;6.75;;;;;;;15.98;100.00;102140.41;5070919;28;20053;-46
2023/10/08 03:39:19;;;;;;;22.67;6.97;;;;;;;15.96;100.00;102145.84;5071174;28;20071;-46
2023/10/08 03:41:59;;;;;;;20.27;6.88;;;;;;;15.97;100.00;102130.78;5071266;28;20056;-46
2023/10/08 03:44:29;;;;;;;18.05;6.80;;;;;;;15.98;100.00;102140.41;5071436;28;20048;-47
2023/10/08 03:47:00;;;;;;;18.10;7.18;;;;;;;15.98;100.00;102120.06;5071330;28;20056;-46
2023/10/08 03:49:31;;;;;;;21.77;7.63;;;;;;;15.96;100.00;102115.81;5071462;28;20400;-47
2023/10/08 03:52:00;;;;;;;19.92;6.80;;;;;;;15.93;100.00;102129.28;5071275;28;20063;-46
2023/10/08 03:54:34;;;;;;;17.95;6.78;;;;;;;15.91;100.00;102123.22;5071325;28;20044;-46
2023/10/08 03:57:06;;;;;;;18.13;6.97;;;;;;;15.89;100.00;102132.13;5071221;28;20098;-47
2023/10/08 03:59:40;;;;;;;15.63;6.38;;;;;;;15.88;100.00;102153.47;5071173;28;20411;-47
2023/10/08 04:02:14;;;;;;;16.63;6.30;;;;;;;15.86;100.00;102161.53;5071137;28;20049;-49
2023/10/08 04:04:53;;;;;;;16.75;6.70;;;;;;;15.88;100.00;102164.94;5071111;28;20047;-49
2023/10/08 04:07:28;;;;;;;20.83;7.13;;;;;;;15.85;100.00;102174.91;5071015;28;20407;-48
2023/10/08 04:10:29;;;;;;;19.80;7.20;;;;;;;15.87;100.00;102178.31;5071025;28;20120;-46
2023/10/08 04:12:55;;;;;;;17.23;7.05;;;;;;;15.87;100.00;102173.00;5070830;28;20106;-47
2023/10/08 04:15:23;;;;;;;16.67;7.00;;;;;;;15.86;100.00;102176.59;5071046;28;20051;-47
2023/10/08 04:17:53;;;;;;;16.90;7.63;;;;;;;15.87;100.00;102186.28;5071233;28;20045;-46
2023/10/08 04:20:38;;;;;;;18.67;7.45;;;;;;;15.88;100.00;102198.56;5070912;28;20124;-48
2023/10/08 04:23:13;;;;;;;24.40;7.85;;;;;;;15.89;100.00;102210.88;5072147;28;20036;-46
2023/10/08 04:25:43;;;;;;;;;;;;;;;15.88;100.00;102215.34;5075271;28;20110;-48
2023/10/08 04:28:14;;;;;;;23.33;8.10;;;;;;;15.88;100.00;102218.00;5073402;28;19920;-47
2023/10/08 04:30:45;;;;;;;28.02;8.10;;;;;;;15.90;100.00;102225.84;5074361;28;20040;-45
2023/10/08 04:33:15;;;;;;;21.83;8.52;;;;;;;15.92;100.00;102229.25;5074541;28;20045;-47
2023/10/08 04:35:51;;;;;;;23.20;8.27;;;;;;;15.89;100.00;102245.38;5071228;28;20052;-48
2023/10/08 04:38:22;;;;;;;15.48;6.78;;;;;;;15.79;100.00;102244.22;5070991;28;20087;-45
2023/10/08 04:40:52;;;;;;;27.75;5.97;;;;;;;15.64;100.00;102248.75;5074490;28;20129;-46
2023/10/08 04:43:24;;;;;;;18.40;5.70;;;;;;;15.49;100.00;102239.97;5074339;28;20396;-49
2023/10/08 04:45:53;;;;;;;18.98;5.22;;;;;;;15.37;100.00;102242.44;5074328;28;20076;-49
2023/10/08 04:48:24;;;;;;;13.80;4.65;;;;;;;15.24;100.00;102240.66;5073817;28;20044;-45
2023/10/08 04:50:58;;;;;;;17.27;4.90;;;;;;;15.04;100.00;102243.63;5073516;28;20067;-47
2023/10/08 04:53:31;;;;;;;22.73;5.07;;;;;;;15.05;100.00;102233.84;5071173;28;20055;-48
2023/10/08 04:56:05;;;;;;;14.65;4.72;;;;;;;14.97;100.00;102214.94;5070075;28;20525;-44
2023/10/08 04:58:36;;;;;;;17.48;4.95;;;;;;;14.96;100.00;102218.56;5072608;28;20491;-44
2023/10/08 05:01:18;;;;;;;15.82;4.57;;;;;;;14.91;100.00;102224.13;5073727;28;20072;-45
2023/10/08 05:04:07;;;;;;;17.83;4.38;;;;;;;14.88;100.00;102229.63;5074024;28;20544;-47
2023/10/08 05:07:00;;;;;;;13.70;4.03;;;;;;;14.91;100.00;102210.88;5073633;28;20044;-46
2023/10/08 05:09:45;;;;;;;15.02;3.78;;;;;;;14.90;100.00;102222.41;5073436;28;20048;-47
2023/10/08 05:12:30;;;;;;;13.20;3.90;;;;;;;14.83;100.00;102240.50;5069530;28;20060;-43
2023/10/08 05:15:21;;;;;;;19.77;5.07;;;;;;;14.75;100.00;102249.84;5072296;28;20048;-48
2023/10/08 05:18:08;;;;;;;18.83;4.25;;;;;;;14.62;100.00;102250.56;5073512;28;20051;-48
2023/10/08 05:20:58;;;;;;;13.57;3.92;;;;;;;14.62;100.00;102255.00;5073450;28;20041;-48
2023/10/08 05:26:20;;;;;;;13.65;4.13;;;;;;;14.47;100.00;102243.53;5072261;28;20049;-46
2023/10/08 05:29:00;;;;;;;11.73;3.85;;;;;;;14.42;100.00;102264.13;5072049;28;20079;-46
2023/10/08 05:31:53;;;;;;;9.95;3.75;;;;;;;14.41;100.00;102259.75;5073361;28;20537;-47
2023/10/08 05:34:23;;;;;;;11.80;3.92;;;;;;;14.47;100.00;102260.25;5073215;28;20051;-47
2023/10/08 05:39:42;;;;;;;11.07;3.65;;;;;;;14.30;100.00;102287.72;5073287;28;20076;-46
2023/10/08 05:42:19;;;;;;;12.77;4.00;;;;;;;14.15;100.00;102284.16;5073061;28;20045;-46
2023/10/08 05:45:13;;;;;;;11.70;4.53;;;;;;;14.08;100.00;102288.09;5073000;28;20128;-45
2023/10/08 05:47:41;;;;;;;9.52;4.20;;;;;;;14.13;100.00;102293.13;5073051;28;20411;-46
2023/10/08 05:53:15;;;;;;;11.07;4.47;;;;;;;14.08;100.00;102321.63;5072818;28;20048;-46
2023/10/08 05:55:47;;;;;;;12.32;3.80;;;;;;;13.94;100.00;102317.13;5072849;28;20061;-47
2023/10/08 05:58:24;;;;;;;12.25;3.85;;;;;;;14.03;100.00;102304.22;5072877;28;20241;-47
2023/10/08 06:01:26;;;;;;;10.80;3.58;;;;;;;14.03;100.00;102285.72;5072735;28;20049;-44
2023/10/08 06:04:11;;;;;;;8.88;3.20;;;;;;;14.01;100.00;102271.72;5069568;28;20044;-50
2023/10/08 06:06:47;;;;;;;8.68;3.10;;;;;;;13.96;100.00;102318.75;5070410;28;20098;-47
2023/10/08 06:09:23;;;;;;;6.38;2.63;;;;;;;13.88;100.00;102322.75;5072303;28;20072;-46
2023/10/08 06:12:10;;;;;;;7.85;3.10;;;;;;;13.83;100.00;102344.16;5072090;28;20127;-48
2023/10/08 06:15:07;;;;;;;11.10;2.83;;;;;;;13.73;100.00;102366.75;5069252;28;20098;-49
2023/10/08 06:17:58;;;;;;;12.40;3.25;;;;;;;13.69;100.00;102343.13;5068858;28;20399;-49
2023/10/08 06:20:27;;;;;;;9.95;2.85;;;;;;;13.67;100.00;102318.59;5068772;28;20052;-46
2023/10/08 06:23:00;;;;;;;9.80;3.35;;;;;;;13.64;100.00;102302.88;5069129;28;20080;-45
2023/10/08 06:25:30;;;;;;;11.80;3.50;;;;;;;13.72;100.00;102291.88;5072359;28;20052;-47
2023/10/08 06:27:59;;;;;;;12.07;3.72;;;;;;;13.73;100.00;102327.09;5072143;28;20130;-47
2023/10/08 06:30:29;;;;;;;9.52;3.40;;;;;;;13.69;100.00;102342.28;5072467;28;20041;-49
2023/10/08 06:32:58;;;;;;;9.60;3.78;;;;;;;13.62;100.00;102348.81;5072072;28;20599;-46
2023/10/08 06:35:28;;;;;;;10.93;3.28;;;;;;;13.62;100.00;102346.19;5072107;28;20076;-47
2023/10/08 06:37:59;;;;;;;10.05;3.13;;;;;;;13.63;100.00;102369.91;5071896;28;20507;-46
2023/10/08 06:40:43;;;;;;;8.57;3.40;;;;;;;13.60;100.00;102382.44;5071796;28;20041;-47
2023/10/08 06:43:16;;;;;;;8.10;3.42;;;;;;;13.64;100.00;102378.69;5072066;28;20041;-47
2023/10/08 06:45:46;;;;;;;6.78;2.85;;;;;;;13.63;100.00;102355.81;5071444;28;20094;-46
2023/10/08 06:48:20;;;;;;;9.93;3.88;;;;;;;13.62;100.00;102352.34;5071927;28;20056;-48
2023/10/08 06:50:50;;;;;;;8.35;3.38;;;;;;;13.58;100.00;102368.44;5071832;28;20503;-47
2023/10/08 06:53:19;;;;;;;10.50;3.15;;;;;;;13.58;100.00;102361.38;5070666;28;20087;-44
2023/10/08 06:55:56;;;;;;;7.78;3.40;;;;;;;13.57;100.00;102369.38;5071905;28;20040;-49
2023/10/08 06:58:26;;;;;;;8.18;3.85;;;;;;;13.51;100.00;102359.97;5071837;28;20085;-50
2023/10/08 07:00:55;;;;;;;9.55;4.10;;;;;;;13.42;100.00;102361.34;5071619;28;20068;-46
2023/10/08 07:03:24;;;;;;;9.02;4.63;;;;;;;13.51;100.00;102373.19;5071617;28;20048;-47
2023/10/08 07:05:57;;;;;;;9.50;4.97;;;;;;;13.49;100.00;102372.44;5071790;28;20511;-45
2023/10/08 07:08:29;;;;;;;9.23;4.85;;;;;;;13.48;100.00;102373.34;5069759;28;20147;-45
2023/10/08 07:11:05;;;;;;;8.60;4.50;;;;;;;13.53;100.00;102377.47;5060325;28;20119;-48
2023/10/08 07:13:37;;;;;;;11.35;5.15;;;;;;;13.60;100.00;102380.63;5071715;28;20041;-46
2023/10/08 07:16:11;;;;;;;12.93;5.05;;;;;;;13.60;100.00;102374.50;5071686;28;20478;-48
2023/10/08 07:18:41;;;;;;;11.75;5.10;;;;;;;13.60;100.00;102375.34;5071663;28;20036;-46
2023/10/08 07:21:13;;;;;;;8.63;4.57;;;;;;;13.66;100.00;102375.03;5071508;28;20045;-46
2023/10/08 07:23:56;;;;;;;10.32;4.95;;;;;;;13.64;100.00;102373.41;5070433;28;20157;-48
2023/10/08 07:26:25;;;;;;;9.25;4.40;;;;;;;13.63;100.00;102380.50;5071549;28;20629;-48
2023/10/08 07:28:55;;;;;;;8.52;4.65;;;;;;;13.67;100.00;102389.97;5071324;28;20610;-48
2023/10/08 07:31:28;;;;;;;10.05;5.00;;;;;;;13.68;100.00;102390.81;5063823;28;20487;-48
2023/10/08 07:34:15;;;;;;;9.70;4.93;;;;;;;13.58;100.00;102402.78;5065070;28;20087;-45
2023/10/08 07:36:44;;;;;;;8.68;4.68;;;;;;;13.59;100.00;102400.06;5058016;28;20060;-44
2023/10/08 07:39:25;;;;;;;9.98;5.13;;;;;;;13.58;100.00;102397.50;5064026;28;20063;-45
2023/10/08 07:41:55;;;;;;;8.50;4.85;;;;;;;13.60;100.00;102404.41;5051349;28;20104;-48
2023/10/08 07:44:28;;;;;;;10.23;5.60;;;;;;;13.65;100.00;102405.03;5060025;28;20511;-46
2023/10/08 07:46:56;;;;;;;9.10;4.82;;;;;;;13.63;100.00;102409.56;5054501;28;20131;-45
2023/10/08 07:49:25;;;;;;;9.90;6.07;;;;;;;13.61;100.00;102411.44;5057468;28;20032;-45
2023/10/08 07:51:54;;;;;;;9.43;5.22;;;;;;;13.55;100.00;102417.03;5052178;28;20470;-46
2023/10/08 07:54:24;;;;;;;10.00;5.60;;;;;;;13.56;100.00;102409.97;5051933;28;20044;-44
2023/10/08 07:56:54;;;;;;;11.27;5.90;;;;;;;13.55;100.00;102401.16;5054127;28;20641;-46
2023/10/08 07:59:22;;;;;;;10.93;5.47;;;;;;;13.53;100.00;102400.41;5056906;28;20055;-46
2023/10/08 08:01:53;;;;;;;9.77;5.75;;;;;;;13.55;100.00;102403.81;5053716;28;20506;-48
2023/10/08 08:04:22;;;;;;;11.52;5.85;;;;;;;13.55;100.00;102403.81;5053906;28;20106;-46
2023/10/08 08:06:54;;;;;;;11.55;5.60;;;;;;;13.58;100.00;102408.06;5055150;28;20048;-48
2023/10/08 08:09:23;;;;;;;12.23;5.90;;;;;;;13.53;100.00;102419.75;5056134;28;20041;-45
2023/10/08 08:11:51;;;;;;;9.32;5.35;;;;;;;13.53;100.00;102422.38;5065727;28;20044;-47
2023/10/08 08:14:24;;;;;;;10.35;5.75;;;;;;;13.58;100.00;102429.22;5065445;28;20045;-46
2023/10/08 08:16:55;;;;;;;11.02;5.22;;;;;;;13.47;100.00;102432.44;5077371;28;20490;-46
2023/10/08 08:19:24;;;;;;;10.60;5.05;;;;;;;13.49;100.00;102433.22;5095133;28;20048;-46
2023/10/08 08:21:52;;;;;;;13.00;5.65;;;;;;;13.51;100.00;102444.53;5070940;28;20430;-50
2023/10/08 08:24:28;;;;;;;9.55;4.57;;;;;;;13.51;100.00;102448.06;5053878;28;20043;-48
2023/10/08 08:27:08;;;;;;;11.35;4.20;;;;;;;13.47;100.00;102456.22;5053312;28;20045;-48
2023/10/08 08:29:45;;;;;;;11.00;4.70;;;;;;;13.49;100.00;102462.28;5053655;28;20045;-47
2023/10/08 08:32:15;;;;;;;10.07;4.57;;;;;;;13.52;100.00;102476.22;5053455;28;20044;-49
2023/10/08 08:34:44;;;;;;;10.95;5.05;;;;;;;13.59;100.00;102474.06;5054537;28;20099;-46
2023/10/08 08:37:13;;;;;;;9.18;4.20;;;;;;;13.61;100.00;102476.66;5064281;28;20526;-47
2023/10/08 08:39:41;;;;;;;9.13;4.10;;;;;;;13.71;100.00;102482.31;5057664;28;20045;-49
2023/10/08 08:42:10;;;;;;;10.07;4.30;;;;;;;13.71;100.00;102475.22;5062466;28;20411;-47
2023/10/08 08:44:45;;;;;;;9.77;4.25;;;;;;;13.71;100.00;102471.75;5059268;28;20144;-47
2023/10/08 08:47:17;;;;;;;8.98;3.67;;;;;;;13.73;100.00;102473.38;5062522;28;20446;-47
2023/10/08 08:49:47;;;;;;;9.95;3.45;;;;;;;13.75;100.00;102481.22;5060963;28;20068;-46
2023/10/08 08:52:17;;;;;;;10.15;4.38;;;;;;;13.82;100.00;102487.88;5074138;28;20044;-48
2023/10/08 08:54:46;;;;;;;9.90;3.80;;;;;;;13.87;100.00;102501.72;5060395;28;20044;-46
2023/10/08 08:57:14;;;;;;;8.43;3.30;;;;;;;13.93;100.00;102493.44;5059209;28;20052;-47
2023/10/08 08:59:49;;;;;;;6.97;3.25;;;;;;;13.95;100.00;102490.75;5079061;28;20052;-45
2023/10/08 09:02:20;;;;;;;8.55;3.00;;;;;;;14.00;100.00;102492.22;5066483;28;20058;-45
2023/10/08 09:04:50;;;;;;;8.20;3.10;;;;;;;14.02;100.00;102492.13;5069037;28;20128;-45
2023/10/08 09:07:21;;;;;;;8.55;2.97;;;;;;;14.13;100.00;102496.84;5061329;28;20052;-45
2023/10/08 09:09:50;;;;;;;8.13;2.47;;;;;;;14.16;100.00;102501.97;5063062;28;20858;-46
2023/10/08 09:12:21;;;;;;;7.68;2.42;;;;;;;14.23;100.00;102489.25;5063565;28;20033;-48
2023/10/08 09:14:49;;;;;;;6.45;2.25;;;;;;;14.19;100.00;102484.13;5062061;28;20055;-49
2023/10/08 09:17:19;;;;;;;8.35;1.90;;;;;;;14.16;100.00;102484.28;5065220;28;20036;-44
2023/10/08 09:19:48;;;;;;;4.95;2.22;;;;;;;14.25;100.00;102482.94;5073842;28;20553;-47
2023/10/08 09:22:19;;;;;;;7.45;1.80;;;;;;;14.28;100.00;102487.22;5073790;28;20052;-47
2023/10/08 09:24:52;;;;;;;6.75;1.83;;;;;;;14.37;100.00;102481.44;5073629;28;20080;-45
2023/10/08 09:27:21;;;;;;;7.20;1.77;;;;;;;14.43;100.00;102491.66;5074069;28;20052;-47
2023/10/08 09:29:50;;;;;;;9.55;1.95;;;;;;;14.58;100.00;102489.09;5072371;28;20093;-49
2023/10/08 09:32:23;;;;;;;7.60;2.33;;;;;;;14.64;100.00;102488.78;5073688;28;20136;-46
2023/10/08 09:34:53;;;;;;;7.18;2.10;;;;;;;14.69;100.00;102486.72;5073740;28;20059;-47
2023/10/08 09:37:22;;;;;;;7.20;1.80;;;;;;;14.74;100.00;102489.97;5073275;28;20407;-47
2023/10/08 09:39:52;;;;;;;7.20;2.20;;;;;;;14.76;100.00;102488.06;5073525;28;20051;-49
2023/10/08 09:42:24;;;;;;;4.72;2.03;;;;;;;14.80;100.00;102483.47;5073287;28;20484;-49
2023/10/08 09:44:53;;;;;;;7.38;2.22;;;;;;;14.81;100.00;102495.78;5073350;28;20052;-47
2023/10/08 09:47:23;;;;;;;6.10;1.85;;;;;;;14.81;100.00;102491.31;5073465;28;20518;-48
2023/10/08 09:49:58;;;;;;;6.05;2.30;;;;;;;14.79;100.00;102500.28;5073171;28;20261;-47
2023/10/08 09:52:35;;;;;;;4.45;1.77;;;;;;;14.83;100.00;102494.75;5065125;28;20083;-47
2023/10/08 09:55:10;;;;;;;6.28;1.95;;;;;;;14.90;100.00;102505.81;5055035;28;20063;-47
2023/10/08 09:57:39;;;;;;;6.43;1.88;;;;;;;14.94;100.00;102491.47;5061613;28;20083;-48
2023/10/08 10:00:14;;;;;;;7.65;2.17;;;;;;;15.04;100.00;102503.25;5072866;28;20040;-45
2023/10/08 10:02:47;;;;;;;4.97;2.03;;;;;;;15.14;100.00;102500.06;5068804;28;20037;-45
2023/10/08 10:05:21;;;;;;;6.35;2.15;;;;;;;15.17;100.00;102495.44;5072548;28;20052;-47
2023/10/08 10:07:49;;;;;;;5.28;2.13;;;;;;;15.24;100.00;102503.88;5065030;28;20045;-45
2023/10/08 10:10:30;;;;;;;5.20;1.73;;;;;;;15.31;100.00;102509.66;5064696;28;20407;-47
2023/10/08 10:13:00;;;;;;;6.63;2.35;;;;;;;15.33;100.00;102502.50;5072685;28;20055;-50
2023/10/08 10:15:30;;;;;;;4.78;1.85;;;;;;;15.29;100.00;102498.31;5060970;28;20392;-46
2023/10/08 10:18:10;;;;;;;6.90;1.75;;;;;;;15.42;100.00;102503.72;5062510;28;20071;-47
2023/10/08 10:20:41;;;;;;;6.90;1.75;;;;;;;15.46;100.00;102498.16;5059671;28;20498;-49
2023/10/08 10:23:37;;;;;;;8.32;1.90;;;;;;;15.44;100.00;102504.50;5065918;28;20041;-46
2023/10/08 10:26:09;;;;;;;6.05;1.80;;;;;;;15.57;100.00;102510.78;5060223;28;20047;-47
2023/10/08 10:28:38;;;;;;;7.05;2.03;;;;;;;15.66;100.00;102504.06;5054877;28;20044;-48
2023/10/08 10:31:07;;;;;;;8.70;1.90;;;;;;;15.69;100.00;102504.75;5058011;28;20484;-47
2023/10/08 10:33:39;;;;;;;4.60;1.70;;;;;;;15.80;100.00;102490.84;5060103;28;20037;-47
2023/10/08 10:36:08;;;;;;;7.35;2.60;;;;;;;15.85;100.00;102501.19;5062277;28;20071;-46
2023/10/08 10:38:42;;;;;;;3.85;1.75;;;;;;;15.93;100.00;102500.72;5066745;28;20048;-46
2023/10/08 10:41:10;;;;;;;7.72;2.38;;;;;;;16.09;100.00;102497.94;5063791;28;20468;-48
2023/10/08 10:43:40;;;;;;;7.18;2.00;;;;;;;16.18;100.00;102494.72;5059162;28;20063;-47
2023/10/08 10:49:05;;;;;;;5.68;1.73;;;;;;;16.30;100.00;102507.22;5069507;28;20045;-47
2023/10/08 10:51:33;;;;;;;3.40;1.70;;;;;;;16.34;100.00;102511.38;5065791;28;20037;-48
2023/10/08 10:54:09;;;;;;;4.43;1.85;;;;;;;16.43;100.00;102504.66;5057746;28;20102;-47
2023/10/08 10:56:42;;;;;;;7.85;2.45;;;;;;;16.54;100.00;102509.28;5054300;28;20410;-48
2023/10/08 10:59:18;;;;;;;5.90;2.25;;;;;;;16.59;100.00;102509.81;5057652;28;20063;-48
2023/10/08 11:01:52;;;;;;;6.20;2.00;;;;;;;16.62;100.00;102514.94;5061563;28;20518;-47
2023/10/08 11:04:28;;;;;;;5.43;2.00;;;;;;;16.58;100.00;102499.28;5066236;28;20059;-48
2023/10/08 11:07:00;;;;;;;3.92;1.80;;;;;;;16.64;100.00;102497.09;5070887;28;20420;-49
2023/10/08 11:09:38;;;;;;;6.15;2.05;;;;;;;16.69;100.00;102500.31;5070831;28;20538;-47
2023/10/08 11:12:10;;;;;;;5.30;2.00;;;;;;;16.76;100.00;102500.75;5071293;28;20105;-49
2023/10/08 11:14:41;;;;;;;;;;;;;;;16.72;100.00;102500.09;5071934;28;20044;-47
2023/10/08 11:17:14;;;;;;;4.38;1.70;;;;;;;16.71;100.00;102493.09;5071297;28;19970;-48
2023/10/08 11:19:46;;;;;;;4.38;1.75;;;;;;;16.80;100.00;102493.44;5071280;28;20051;-50
2023/10/08 11:22:17;;;;;;;4.53;2.00;;;;;;;16.90;100.00;102495.41;5071586;28;20032;-46
2023/10/08 11:24:48;;;;;;;4.75;1.80;;;;;;;16.90;100.00;102498.06;5071444;28;20128;-48
2023/10/08 11:27:28;;;;;;;5.55;2.15;;;;;;;16.89;100.00;102484.88;5071505;28;20044;-48
2023/10/08 11:29:59;;;;;;;5.80;2.03;;;;;;;16.94;100.00;102484.59;5071847;28;20064;-48
2023/10/08 11:32:32;;;;;;;6.22;2.00;;;;;;;16.89;100.00;102482.22;5071302;28;20531;-44
2023/10/08 11:35:15;;;;;;;3.95;1.80;;;;;;;16.81;100.00;102476.53;5071390;28;20051;-45
2023/10/08 11:37:48;;;;;;;;;;;;;;;16.87;100.00;102481.44;5071888;28;20052;-46
2023/10/08 11:40:28;;;;;;;6.67;2.10;;;;;;;16.92;100.00;102479.38;5071472;28;19978;-46
2023/10/08 11:42:58;;;;;;;6.22;1.70;;;;;;;16.88;100.00;102478.69;5071533;28;20069;-48
2023/10/08 11:45:38;;;;;;;4.15;1.90;;;;;;;16.95;100.00;102478.34;5071584;28;20090;-47
2023/10/08 11:48:11;;;;;;;4.15;2.00;;;;;;;16.97;100.00;102479.91;5071519;28;20048;-46
2023/10/08 11:50:42;;;;;;;3.92;1.63;;;;;;;17.05;100.00;102479.41;5071170;28;20491;-46